Decoded Metar for KCGS (COLLEGE PARK in MD, USA) (IATA:CGS) | Meteo·Mobile Aviation Weather
aviador You're here:

KCGS Decoded Metar

COLLEGE PARK in MD, USA
Report Time2019-09-21 09:42:00
UTC Time2019-09-21 10:05:02
Flight Rules vfr VFR
WindCalm
Visibility9999 m
Phenomena:N/A
Clouds:N/A
Expected CloudBase > 400 ft AGL from Temp-Dew spread
CeilingNone
Temp12°C (ISA -3)
Dew Point11°C (94% RH)
QNH1024 hPa
Density Alt-492 ft
Elevation49 ft
Report Wrong Elevation
Raw Report
KCGS 210942Z AUTO 00000KT 10SM CLR 12/11 A3023 RMK AO1
T01150105=

Extra information for KCGS:More info

Metar Taf Metar & Taf Last 4 Metars F.Rules Stats Wind Profile Meteogram Temp Stats Airport Information Weather charts Add Link Nearby VenuesMetar ALERT Operation Metar Decoded Social comments

AIRNAV info for KCGS